Baza Date GPS

Sebastian Marinescu
NO DATE Latitudine Longitudine Altitudine Temperatura Umiditate LOG
436 04.06.2018_03:34:05pm 0.000000 0.000000 1000000.00 28.00 33.00
437 04.06.2018_03:34:14pm 0.000000 0.000000 1000000.00 28.00 33.00
438 04.06.2018_03:34:27pm 0.000000 0.000000 1000000.00 28.00 33.00
439 04.06.2018_03:35:10pm 0.000000 0.000000 1000000.00 28.00 33.00
440 04.06.2018_03:35:18pm 0.000000 0.000000 1000000.00 28.00 33.00
441 04.06.2018_03:35:41pm 45.652481 25.562178 554.70 28.00 33.00
442 04.06.2018_03:35:49pm 45.652493 25.562180 553.70 28.00 33.00
443 04.06.2018_03:36:07pm 45.652489 25.562197 554.00 28.00 33.00
444 04.06.2018_03:36:15pm 45.652477 25.562220 556.00 28.00 33.00
445 04.06.2018_03:36:28pm 45.652458 25.562237 555.90 27.00 32.00
446 04.06.2018_03:36:46pm 45.652451 25.562252 552.30 28.00 33.00
447 04.06.2018_03:36:54pm 45.652451 25.562260 552.00 28.00 33.00
448 04.06.2018_03:37:03pm 45.652454 25.562267 551.00 28.00 33.00
449 04.06.2018_03:37:20pm 45.652477 25.562256 1000000.00 27.00 31.00
450 04.06.2018_03:37:29pm 45.652481 25.562248 550.80 28.00 33.00
451 04.06.2018_03:37:37pm 45.652477 25.562246 552.00 28.00 33.00
452 04.06.2018_03:37:46pm 45.652466 25.562252 1000000.00 28.00 33.00
453 04.06.2018_03:37:55pm 45.652470 25.562243 555.10 28.00 33.00
454 04.06.2018_03:38:13pm 45.652473 25.562244 557.20 28.00 34.00
455 04.06.2018_03:38:25pm 45.652481 25.562231 556.00 28.00 33.00
456 04.06.2018_03:38:33pm 45.652477 25.562231 555.40 28.00 33.00
457 04.06.2018_03:38:42pm 45.652481 25.562223 553.80 28.00 33.00
458 04.06.2018_03:38:51pm 45.652477 25.562222 553.20 28.00 33.00
459 04.06.2018_03:39:04pm 45.652489 25.562208 550.40 27.00 31.00
460 04.06.2018_03:39:12pm 45.652489 25.562212 549.50 28.00 33.00
461 04.06.2018_03:39:21pm 45.652493 25.562212 548.40 28.00 33.00
462 04.06.2018_03:39:30pm 45.652485 25.562210 548.40 28.00 33.00
463 04.06.2018_03:40:01pm 45.652458 25.562256 552.20 28.00 33.00
464 04.06.2018_03:40:13pm 45.652454 25.562265 553.60 28.00 33.00
465 04.06.2018_03:40:26pm 45.652439 25.562277 557.10 28.00 33.00
466 04.06.2018_03:40:35pm 45.652447 25.562263 555.60 28.00 33.00
467 04.06.2018_06:18:30pm 0.000000 0.000000 1000000.00 25.00 34.00
468 04.06.2018_06:18:38pm 0.000000 0.000000 1000000.00 25.00 34.00
469 04.06.2018_06:18:47pm 0.000000 0.000000 1000000.00 25.00 34.00
470 04.06.2018_06:19:00pm 0.000000 0.000000 1000000.00 25.00 34.00
471 04.06.2018_06:19:08pm 0.000000 0.000000 1000000.00 25.00 34.00
472 04.06.2018_06:19:26pm 0.000000 0.000000 1000000.00 25.00 34.00
473 04.06.2018_06:19:47pm 0.000000 0.000000 1000000.00 25.00 34.00
474 04.06.2018_06:19:55pm 0.000000 0.000000 1000000.00 25.00 34.00
475 04.06.2018_06:20:04pm 0.000000 0.000000 1000000.00 25.00 34.00
476 04.06.2018_06:20:17pm 0.000000 0.000000 1000000.00 25.00 34.00
477 04.06.2018_06:20:25pm 0.000000 0.000000 1000000.00 24.00 34.00
478 04.06.2018_06:20:34pm 0.000000 0.000000 1000000.00 25.00 34.00
479 04.06.2018_06:20:47pm 0.000000 0.000000 1000000.00 25.00 34.00
480 04.06.2018_06:20:55pm 0.000000 0.000000 1000000.00 25.00 34.00
481 04.06.2018_06:21:08pm 0.000000 0.000000 1000000.00 25.00 34.00
482 04.06.2018_06:21:17pm 0.000000 0.000000 1000000.00 26.00 34.00
483 04.06.2018_06:21:25pm 0.000000 0.000000 1000000.00 26.00 34.00
484 04.06.2018_06:21:34pm 0.000000 0.000000 1000000.00 26.00 34.00
485 04.06.2018_06:21:46pm 0.000000 0.000000 1000000.00 26.00 34.00
486 04.06.2018_06:22:02pm 0.000000 0.000000 1000000.00 26.00 34.00
487 04.06.2018_06:22:11pm 0.000000 0.000000 1000000.00 26.00 34.00
488 04.06.2018_06:22:20pm 0.000000 0.000000 1000000.00 26.00 34.00
489 04.06.2018_06:22:28pm 0.000000 0.000000 1000000.00 26.00 34.00
490 04.06.2018_06:22:37pm 0.000000 0.000000 1000000.00 26.00 34.00
491 04.06.2018_06:23:20pm 0.000000 0.000000 1000000.00 26.00 34.00
492 04.06.2018_06:23:29pm 0.000000 0.000000 1000000.00 26.00 34.00
493 04.06.2018_06:23:51pm 0.000000 0.000000 1000000.00 26.00 34.00